Time;durP1;ratioP1;P1;durP2;ratioP2;P2;SDS_P1;SDS_P2;PMS_P1;PMS_P2;Temp;Humidity;BMP_temperature;BMP_pressure;BME280_temperature;BME280_humidity;BME280_pressure;Samples;Min_cycle;Max_cycle;Signal;HPM_P1;HPM_P2
2023/10/02 00:01:10;;;;;;;476.60;245.43;;;;;;;;;;4997230;28;20287;-48
2023/10/02 00:03:40;;;;;;;437.93;222.33;;;;;;;;;;5004333;28;20539;-48
2023/10/02 00:06:06;;;;;;;505.47;259.80;;;;;;;;;;4996501;28;20254;-48
2023/10/02 00:08:39;;;;;;;498.17;257.37;;;;;;;;;;4999980;28;20238;-48
2023/10/02 00:11:35;;;;;;;513.90;273.17;;;;;;;;;;4986909;28;20223;-48
2023/10/02 00:14:18;;;;;;;455.50;235.27;;;;;;;;;;5001042;28;20266;-48
2023/10/02 00:16:42;;;;;;;475.13;247.23;;;;;;;;;;4997692;28;20949;-48
2023/10/02 00:19:18;;;;;;;487.97;248.77;;;;;;;;;;5000507;28;20220;-48
2023/10/02 00:21:44;;;;;;;475.80;245.43;;;;;;;;;;5000503;28;20253;-48
2023/10/02 00:24:10;;;;;;;485.67;252.47;;;;;;;;;;4990170;28;20694;-48
2023/10/02 00:26:36;;;;;;;463.47;237.27;;;;;;;;;;4990939;28;20223;-48
2023/10/02 00:29:06;;;;;;;499.10;258.47;;;;;;;;;;5000850;28;20227;-48
2023/10/02 00:31:36;;;;;;;485.97;247.07;;;;;;;;;;4999218;28;20243;-49
2023/10/02 00:34:02;;;;;;;495.27;252.93;;;;;;;;;;5001075;28;20632;-48
2023/10/02 00:36:29;;;;;;;492.53;259.93;;;;;;;;;;4997768;28;20207;-48
2023/10/02 00:39:24;;;;;;;469.63;239.97;;;;;;;;;;5000784;28;20220;-48
2023/10/02 00:42:10;;;;;;;468.40;230.83;;;;;;;;;;5003151;28;20216;-48
2023/10/02 00:44:51;;;;;;;463.20;233.13;;;;;;;;;;4988957;28;20336;-48
2023/10/02 00:47:17;;;;;;;471.43;232.33;;;;;;;;;;4997439;28;20216;-48
2023/10/02 00:49:43;;;;;;;488.37;246.17;;;;;;;;;;4999031;28;20509;-48
2023/10/02 00:52:09;;;;;;;549.23;292.73;;;;;;;;;;4995745;28;20231;-48
2023/10/02 00:54:36;;;;;;;490.50;254.63;;;;;;;;;;5000520;28;20200;-48
2023/10/02 00:57:16;;;;;;;455.80;234.17;;;;;;;;;;4997727;28;20323;-48
2023/10/02 00:59:45;;;;;;;471.30;238.63;;;;;;;;;;4996069;28;20693;-48
2023/10/02 01:02:16;;;;;;;520.47;275.40;;;;;;;;;;4992172;28;20327;-48
2023/10/02 01:04:42;;;;;;;481.43;239.00;;;;;;;;;;5001842;28;20686;-48
2023/10/02 01:07:11;;;;;;;498.13;257.03;;;;;;;;;;4990758;28;20176;-48
2023/10/02 01:09:39;;;;;;;453.13;229.10;;;;;;;;;;4999930;28;20214;-48
2023/10/02 01:12:10;;;;;;;474.03;240.67;;;;;;;;;;4994676;28;20216;-48
2023/10/02 01:14:43;;;;;;;501.70;260.87;;;;;;;;;;4992055;28;20622;-48
2023/10/02 01:17:14;;;;;;;475.77;244.33;;;;;;;;;;4992734;28;20270;-48
2023/10/02 01:19:57;;;;;;;525.47;275.77;;;;;;;;;;4997567;28;20602;-48
2023/10/02 01:22:26;;;;;;;451.77;223.63;;;;;;;;;;4999192;28;20223;-49
2023/10/02 01:25:06;;;;;;;456.63;231.87;;;;;;;;;;4998673;28;20376;-48
2023/10/02 01:27:40;;;;;;;458.63;225.10;;;;;;;;;;4992818;28;20397;-48
2023/10/02 01:30:15;;;;;;;502.63;264.47;;;;;;;;;;4994345;28;20254;-48
2023/10/02 01:33:06;;;;;;;469.70;235.53;;;;;;;;;;4994861;28;20243;-48
2023/10/02 01:35:36;;;;;;;508.30;265.53;;;;;;;;;;4995616;28;20220;-48
2023/10/02 01:38:06;;;;;;;480.93;237.70;;;;;;;;;;4997725;28;20289;-48
2023/10/02 01:40:36;;;;;;;477.80;240.30;;;;;;;;;;4995513;28;20650;-48
2023/10/02 01:43:12;;;;;;;488.57;248.13;;;;;;;;;;5003619;28;20720;-48
2023/10/02 01:45:42;;;;;;;486.70;243.73;;;;;;;;;;4992421;28;20301;-48
2023/10/02 01:48:09;;;;;;;457.30;223.97;;;;;;;;;;4997025;28;20228;-49
2023/10/02 01:50:36;;;;;;;483.03;252.37;;;;;;;;;;4997110;28;20630;-49
2023/10/02 01:53:05;;;;;;;468.03;238.73;;;;;;;;;;5009478;28;20333;-50
2023/10/02 01:55:32;;;;;;;444.07;222.70;;;;;;;;;;4997311;28;20224;-50
2023/10/02 01:58:16;;;;;;;517.40;266.80;;;;;;;;;;4992503;28;20200;-49
2023/10/02 02:00:42;;;;;;;466.80;227.67;;;;;;;;;;4995295;28;20342;-49
2023/10/02 02:03:14;;;;;;;509.97;258.97;;;;;;;;;;5001343;28;20316;-50
2023/10/02 02:05:44;;;;;;;449.83;221.90;;;;;;;;;;5004058;28;20212;-50
2023/10/02 02:08:21;;;;;;;466.07;235.53;;;;;;;;;;5009798;28;20678;-49
2023/10/02 02:10:51;;;;;;;464.03;234.20;;;;;;;;;;4998238;28;20223;-49
2023/10/02 02:13:18;;;;;;;438.10;216.00;;;;;;;;;;4996873;28;20234;-49
2023/10/02 02:15:45;;;;;;;450.80;221.53;;;;;;;;;;5000533;28;20188;-49
2023/10/02 02:18:11;;;;;;;487.80;244.63;;;;;;;;;;5004725;28;20285;-50
2023/10/02 02:23:22;;;;;;;457.90;226.00;;;;;;;;;;5000610;28;20383;-50
2023/10/02 02:25:48;;;;;;;486.17;252.83;;;;;;;;;;4998780;28;20319;-50
2023/10/02 02:28:14;;;;;;;470.17;242.00;;;;;;;;;;4998234;28;20223;-49
2023/10/02 02:30:43;;;;;;;470.37;240.13;;;;;;;;;;5001922;28;20585;-50
2023/10/02 02:33:12;;;;;;;491.87;247.50;;;;;;;;;;4995891;28;20710;-50
2023/10/02 02:35:39;;;;;;;528.93;270.43;;;;;;;;;;5001490;28;20231;-50
2023/10/02 02:38:14;;;;;;;497.83;247.50;;;;;;;;;;4999413;28;20593;-50
2023/10/02 02:40:40;;;;;;;451.77;229.53;;;;;;;;;;4994320;28;20574;-50
2023/10/02 02:43:21;;;;;;;468.37;239.83;;;;;;;;;;5001815;28;20738;-50
2023/10/02 02:45:47;;;;;;;463.17;234.20;;;;;;;;;;5002528;28;20216;-49
2023/10/02 02:48:16;;;;;;;476.17;232.90;;;;;;;;;;4999722;28;20367;-49
2023/10/02 02:50:42;;;;;;;479.33;248.63;;;;;;;;;;4982131;28;20246;-50
2023/10/02 02:53:30;;;;;;;504.20;256.83;;;;;;;;;;4994170;28;20215;-49
2023/10/02 02:56:17;;;;;;;471.00;232.93;;;;;;;;;;4998393;28;20510;-50
2023/10/02 02:58:48;;;;;;;471.77;236.47;;;;;;;;;;5001802;28;20810;-49
2023/10/02 03:01:24;;;;;;;511.57;266.93;;;;;;;;;;4995177;28;22046;-49
2023/10/02 03:03:50;;;;;;;484.57;252.43;;;;;;;;;;5002510;28;20550;-50
2023/10/02 03:06:18;;;;;;;474.23;240.60;;;;;;;;;;5000775;28;20185;-49
2023/10/02 03:08:45;;;;;;;489.70;255.90;;;;;;;;;;4997249;28;20302;-49
2023/10/02 03:11:11;;;;;;;486.37;249.43;;;;;;;;;;5000180;28;20741;-50
2023/10/02 03:13:40;;;;;;;470.97;237.60;;;;;;;;;;5001218;28;20508;-50
2023/10/02 03:16:13;;;;;;;484.83;247.03;;;;;;;;;;4993383;28;20184;-49
2023/10/02 03:18:43;;;;;;;482.93;248.67;;;;;;;;;;5006740;28;20277;-50
2023/10/02 03:21:14;;;;;;;483.33;247.23;;;;;;;;;;4994536;28;20224;-50
2023/10/02 03:23:44;;;;;;;472.13;241.27;;;;;;;;;;4991645;28;20212;-49
2023/10/02 03:26:37;;;;;;;429.63;213.23;;;;;;;;;;4997190;28;20353;-49
2023/10/02 03:29:11;;;;;;;481.90;248.77;;;;;;;;;;5004060;28;20235;-50
2023/10/02 03:31:43;;;;;;;473.83;235.37;;;;;;;;;;4989484;28;20232;-49
2023/10/02 03:34:27;;;;;;;461.03;235.53;;;;;;;;;;5003359;28;20236;-50
2023/10/02 03:36:54;;;;;;;441.83;220.50;;;;;;;;;;4999915;28;20235;-49
2023/10/02 03:39:23;;;;;;;477.77;242.97;;;;;;;;;;5005635;28;20682;-50
2023/10/02 03:41:55;;;;;;;466.63;234.43;;;;;;;;;;4993741;28;20316;-50
2023/10/02 03:44:22;;;;;;;521.37;275.60;;;;;;;;;;5000016;28;20418;-50
2023/10/02 03:46:48;;;;;;;463.97;230.10;;;;;;;;;;4998456;28;20293;-50
2023/10/02 03:49:18;;;;;;;509.47;267.50;;;;;;;;;;4997727;28;20228;-49
2023/10/02 03:51:44;;;;;;;505.97;264.20;;;;;;;;;;4999526;28;20208;-50
2023/10/02 03:54:17;;;;;;;478.00;245.47;;;;;;;;;;4996874;28;20220;-50
2023/10/02 03:56:50;;;;;;;485.73;245.77;;;;;;;;;;4996575;28;20254;-49
2023/10/02 03:59:25;;;;;;;486.63;249.50;;;;;;;;;;4996238;28;20243;-50
2023/10/02 04:01:51;;;;;;;461.83;235.13;;;;;;;;;;4991162;28;20334;-49
2023/10/02 04:04:21;;;;;;;467.77;243.67;;;;;;;;;;4999622;28;20311;-50
2023/10/02 04:06:48;;;;;;;495.13;256.17;;;;;;;;;;4997347;28;20263;-50
2023/10/02 04:09:21;;;;;;;551.40;290.17;;;;;;;;;;4993322;28;20232;-50
2023/10/02 04:11:50;;;;;;;487.23;247.47;;;;;;;;;;5003678;28;20697;-50
2023/10/02 04:14:19;;;;;;;542.60;287.17;;;;;;;;;;4999242;28;20694;-50
2023/10/02 04:17:09;;;;;;;489.83;246.37;;;;;;;;;;4998196;28;20282;-50
2023/10/02 04:19:35;;;;;;;485.83;252.17;;;;;;;;;;5002748;28;20234;-49
2023/10/02 04:22:06;;;;;;;488.07;255.27;;;;;;;;;;4997130;28;20791;-50
2023/10/02 04:24:51;;;;;;;460.63;237.60;;;;;;;;;;4996298;28;20180;-50
2023/10/02 04:27:18;;;;;;;540.23;283.53;;;;;;;;;;4990927;28;20536;-49
2023/10/02 04:30:24;;;;;;;452.27;226.40;;;;;;;;;;5001842;28;20223;-49
2023/10/02 04:32:32;;;;;;;494.17;258.07;;;;;;;;;;4992587;28;20259;-50
2023/10/02 04:34:59;;;;;;;482.10;244.00;;;;;;;;;;5002319;28;20456;-50
2023/10/02 04:37:26;;;;;;;486.03;254.37;;;;;;;;;;5000738;28;21134;-50
2023/10/02 04:42:25;;;;;;;488.83;256.50;;;;;;;;;;5001189;28;20271;-50
2023/10/02 04:44:56;;;;;;;495.20;254.40;;;;;;;;;;4999292;28;20212;-50
2023/10/02 04:47:23;;;;;;;488.10;252.87;;;;;;;;;;4993196;28;20278;-49
2023/10/02 04:50:34;;;;;;;468.43;241.33;;;;;;;;;;5000673;28;20307;-49
2023/10/02 04:53:03;;;;;;;442.53;222.37;;;;;;;;;;5003401;28;21442;-50
2023/10/02 04:55:41;;;;;;;447.10;221.77;;;;;;;;;;4993469;28;20884;-50
2023/10/02 04:58:15;;;;;;;475.47;236.90;;;;;;;;;;5008992;28;20545;-50
2023/10/02 05:03:26;;;;;;;548.20;282.63;;;;;;;;;;5003272;28;20307;-49
2023/10/02 05:05:53;;;;;;;497.07;251.40;;;;;;;;;;5000680;28;20228;-50
2023/10/02 05:08:40;;;;;;;482.00;244.00;;;;;;;;;;4999430;28;20591;-50
2023/10/02 05:11:07;;;;;;;479.97;239.97;;;;;;;;;;5006496;28;20224;-49
2023/10/02 05:16:26;;;;;;;471.40;242.63;;;;;;;;;;4997691;28;20226;-51
2023/10/02 05:18:53;;;;;;;466.33;239.07;;;;;;;;;;4998443;28;20539;-50
2023/10/02 05:21:19;;;;;;;488.37;243.27;;;;;;;;;;4996496;28;20203;-50
2023/10/02 05:24:01;;;;;;;484.43;242.33;;;;;;;;;;4999313;28;20235;-51
2023/10/02 05:26:36;;;;;;;530.83;278.13;;;;;;;;;;4972528;28;21446;-50
2023/10/02 05:29:05;;;;;;;445.97;213.67;;;;;;;;;;4997076;28;20555;-50
2023/10/02 05:31:35;;;;;;;496.63;251.13;;;;;;;;;;4987904;28;20212;-50
2023/10/02 05:34:01;;;;;;;474.43;242.27;;;;;;;;;;4999470;28;20644;-51
2023/10/02 05:36:29;;;;;;;514.83;269.10;;;;;;;;;;4979097;28;30514;-50
2023/10/02 05:39:16;;;;;;;483.73;243.47;;;;;;;;;;4991005;28;20594;-51
2023/10/02 05:41:46;;;;;;;542.47;284.93;;;;;;;;;;4982205;28;20253;-50
2023/10/02 05:44:23;;;;;;;527.67;269.13;;;;;;;;;;4988834;28;20274;-51
2023/10/02 05:46:56;;;;;;;463.13;226.70;;;;;;;;;;4994808;28;20318;-50
2023/10/02 05:49:26;;;;;;;549.57;292.20;;;;;;;;;;4992329;28;20440;-49
2023/10/02 05:52:00;;;;;;;492.60;253.63;;;;;;;;;;4983579;28;20184;-49
2023/10/02 05:54:29;;;;;;;477.73;237.77;;;;;;;;;;4991896;28;20239;-50
2023/10/02 05:57:08;;;;;;;440.13;214.53;;;;;;;;;;4993628;28;20216;-49
2023/10/02 05:59:44;;;;;;;497.93;249.43;;;;;;;;;;4997823;28;20301;-49
2023/10/02 06:02:11;;;;;;;480.17;249.33;;;;;;;;;;4988436;28;20219;-49
2023/10/02 06:04:38;;;;;;;456.17;222.93;;;;;;;;;;5009301;28;20523;-49
2023/10/02 06:07:04;;;;;;;502.00;251.40;;;;;;;;;;4998462;28;20196;-49
2023/10/02 06:09:43;;;;;;;473.80;238.87;;;;;;;;;;4996128;28;20597;-49
2023/10/02 06:12:11;;;;;;;582.50;313.30;;;;;;;;;;4998437;28;20326;-49
2023/10/02 06:14:42;;;;;;;462.90;233.27;;;;;;;;;;5005763;28;20220;-49
2023/10/02 06:17:11;;;;;;;516.23;260.20;;;;;;;;;;4993971;28;20675;-50
2023/10/02 06:19:42;;;;;;;508.93;263.43;;;;;;;;;;5001911;28;20616;-50
2023/10/02 06:22:09;;;;;;;490.80;246.00;;;;;;;;;;5003446;28;20223;-50
2023/10/02 06:24:36;;;;;;;489.83;241.57;;;;;;;;;;5011368;28;20558;-50
2023/10/02 06:27:10;;;;;;;447.77;218.43;;;;;;;;;;5016032;28;20223;-50
2023/10/02 06:29:39;;;;;;;437.10;214.67;;;;;;;;;;5019066;28;20294;-50
2023/10/02 06:32:09;;;;;;;452.27;218.87;;;;;;;;;;5022765;28;20335;-50
2023/10/02 06:34:36;;;;;;;451.10;230.47;;;;;;;;;;5013284;28;20270;-49
2023/10/02 06:37:13;;;;;;;411.43;196.67;;;;;;;;;;5022096;28;20641;-50
2023/10/02 06:39:42;;;;;;;456.17;230.17;;;;;;;;;;5003215;28;20208;-50
2023/10/02 06:42:17;;;;;;;438.13;219.13;;;;;;;;;;5017010;28;20656;-50
2023/10/02 06:44:55;;;;;;;429.63;210.47;;;;;;;;;;5027123;28;20299;-51
2023/10/02 06:47:28;;;;;;;466.33;236.43;;;;;;;;;;5013139;28;20925;-51
2023/10/02 06:50:02;;;;;;;459.77;225.40;;;;;;;;;;5026041;28;20227;-50
2023/10/02 06:52:29;;;;;;;480.03;240.53;;;;;;;;;;4999993;28;20242;-50
2023/10/02 06:54:56;;;;;;;559.30;296.63;;;;;;;;;;4982279;28;20235;-50
2023/10/02 06:57:24;;;;;;;516.67;265.27;;;;;;;;;;4989382;28;20201;-50
2023/10/02 06:59:53;;;;;;;471.87;238.70;;;;;;;;;;4995091;28;20325;-50
2023/10/02 07:02:27;;;;;;;541.47;282.17;;;;;;;;;;5005231;28;20220;-50
2023/10/02 07:04:55;;;;;;;460.17;234.50;;;;;;;;;;4998461;28;20872;-50
2023/10/02 07:07:32;;;;;;;537.37;287.77;;;;;;;;;;4991465;28;20216;-50
2023/10/02 07:10:08;;;;;;;474.27;240.57;;;;;;;;;;4984278;28;20290;-49
2023/10/02 07:12:39;;;;;;;461.37;234.67;;;;;;;;;;4986993;28;20292;-50
2023/10/02 07:15:13;;;;;;;539.20;281.90;;;;;;;;;;4993038;28;20220;-50
2023/10/02 07:17:48;;;;;;;554.57;295.57;;;;;;;;;;4965770;28;20216;-50
2023/10/02 07:20:21;;;;;;;620.80;346.10;;;;;;;;;;4985049;28;20284;-50
2023/10/02 07:22:47;;;;;;;464.33;238.70;;;;;;;;;;5007856;28;20314;-50
2023/10/02 07:25:24;;;;;;;506.80;262.50;;;;;;;;;;4991925;28;20749;-50
2023/10/02 07:27:50;;;;;;;554.80;297.93;;;;;;;;;;4996361;28;20727;-50
2023/10/02 07:30:26;;;;;;;548.63;292.90;;;;;;;;;;4982342;28;20216;-50
2023/10/02 07:32:53;;;;;;;474.60;245.33;;;;;;;;;;4987178;28;20231;-51
2023/10/02 07:35:23;;;;;;;585.07;322.13;;;;;;;;;;4990147;28;20220;-51
2023/10/02 07:37:58;;;;;;;469.33;238.23;;;;;;;;;;4999291;28;20227;-51
2023/10/02 07:40:26;;;;;;;540.13;290.00;;;;;;;;;;4996644;28;20234;-50
2023/10/02 07:42:52;;;;;;;534.60;284.67;;;;;;;;;;4984515;28;20192;-51
2023/10/02 07:45:25;;;;;;;513.67;271.80;;;;;;;;;;4991486;28;20193;-51
2023/10/02 07:50:38;;;;;;;512.40;264.30;;;;;;;;;;4989145;28;20264;-50
2023/10/02 07:53:05;;;;;;;497.73;261.30;;;;;;;;;;4999739;28;20269;-50
2023/10/02 07:55:32;;;;;;;492.70;258.57;;;;;;;;;;4994394;28;20313;-50
2023/10/02 07:58:00;;;;;;;472.10;244.53;;;;;;;;;;4991510;28;20223;-51
2023/10/02 08:00:33;;;;;;;484.43;252.07;;;;;;;;;;4998881;28;20200;-50
2023/10/02 08:03:02;;;;;;;512.20;271.27;;;;;;;;;;4996910;28;20552;-50
2023/10/02 08:05:29;;;;;;;502.67;267.43;;;;;;;;;;4983469;28;20312;-51
2023/10/02 08:08:10;;;;;;;497.53;268.37;;;;;;;;;;4996249;28;20228;-50
2023/10/02 08:10:52;;;;;;;556.63;305.90;;;;;;;;;;4961701;28;20250;-50
2023/10/02 08:13:35;;;;;;;559.50;297.30;;;;;;;;;;4996617;28;20234;-50
2023/10/02 08:16:17;;;;;;;501.07;267.40;;;;;;;;;;4990469;28;20192;-51
2023/10/02 08:18:57;;;;;;;473.77;242.90;;;;;;;;;;4978952;28;20223;-50
2023/10/02 08:21:33;;;;;;;506.23;272.83;;;;;;;;;;4980741;28;20237;-50
2023/10/02 08:24:01;;;;;;;534.33;285.70;;;;;;;;;;4988841;28;22907;-51
2023/10/02 08:26:27;;;;;;;580.87;315.73;;;;;;;;;;4984758;28;20658;-50
2023/10/02 08:28:53;;;;;;;499.20;267.83;;;;;;;;;;4994393;28;20219;-51
2023/10/02 08:31:19;;;;;;;492.40;266.97;;;;;;;;;;4973573;28;20785;-50
2023/10/02 08:33:45;;;;;;;512.03;279.43;;;;;;;;;;4989467;28;20212;-50
2023/10/02 08:36:13;;;;;;;531.63;289.90;;;;;;;;;;4987325;28;20374;-50
2023/10/02 08:38:49;;;;;;;534.67;298.53;;;;;;;;;;4979640;28;20292;-51
2023/10/02 08:41:19;;;;;;;520.00;294.00;;;;;;;;;;4994275;28;20239;-51
2023/10/02 08:43:45;;;;;;;514.33;285.33;;;;;;;;;;5001331;28;20208;-50
2023/10/02 08:46:19;;;;;;;510.23;280.73;;;;;;;;;;4985650;28;20564;-51
2023/10/02 08:48:45;;;;;;;455.67;249.00;;;;;;;;;;5000743;28;20216;-50
2023/10/02 08:51:13;;;;;;;471.70;258.97;;;;;;;;;;4996611;28;20223;-50
2023/10/02 08:53:43;;;;;;;521.37;292.50;;;;;;;;;;4994505;28;21960;-51
2023/10/02 08:56:21;;;;;;;605.43;352.30;;;;;;;;;;4987778;28;20215;-50
2023/10/02 09:01:35;;;;;;;508.77;289.03;;;;;;;;;;4989265;28;20235;-51
2023/10/02 09:04:22;;;;;;;509.60;287.83;;;;;;;;;;5004074;28;20192;-50
2023/10/02 09:06:49;;;;;;;469.43;262.87;;;;;;;;;;4997184;28;20261;-51
2023/10/02 09:09:23;;;;;;;591.73;354.80;;;;;;;;;;4982129;28;20319;-51
2023/10/02 09:11:53;;;;;;;514.20;295.43;;;;;;;;;;4984839;28;20769;-51
2023/10/02 09:16:46;;;;;;;469.97;269.57;;;;;;;;;;4993976;28;20242;-51
2023/10/02 09:19:28;;;;;;;509.70;299.53;;;;;;;;;;4992545;28;20224;-51
2023/10/02 09:22:06;;;;;;;532.30;319.70;;;;;;;;;;4991769;28;20582;-51
2023/10/02 09:24:34;;;;;;;559.13;327.47;;;;;;;;;;4978942;28;20349;-51
2023/10/02 09:27:20;;;;;;;538.37;318.77;;;;;;;;;;4990110;28;20541;-51
2023/10/02 09:29:46;;;;;;;464.03;276.30;;;;;;;;;;4987441;28;20327;-51
2023/10/02 09:32:21;;;;;;;532.67;319.70;;;;;;;;;;4987268;28;20343;-51
2023/10/02 09:35:10;;;;;;;544.43;322.47;;;;;;;;;;4982611;28;20211;-50
2023/10/02 09:37:36;;;;;;;536.00;319.37;;;;;;;;;;4995883;28;20506;-51
2023/10/02 09:40:03;;;;;;;502.03;292.90;;;;;;;;;;4994073;28;20701;-50
2023/10/02 09:42:33;;;;;;;510.50;304.90;;;;;;;;;;4988417;28;20211;-50
2023/10/02 09:45:08;;;;;;;496.80;290.20;;;;;;;;;;4990939;28;20529;-50
2023/10/02 09:47:34;;;;;;;522.50;306.87;;;;;;;;;;4990122;28;20641;-50
2023/10/02 09:50:12;;;;;;;548.90;332.40;;;;;;;;;;4993604;28;20300;-50
2023/10/02 09:52:57;;;;;;;537.07;328.17;;;;;;;;;;4977691;28;20242;-50
2023/10/02 09:55:34;;;;;;;533.40;326.77;;;;;;;;;;4988228;28;20200;-50
2023/10/02 09:58:03;;;;;;;527.90;320.40;;;;;;;;;;4990871;28;20188;-50
2023/10/02 10:00:36;;;;;;;513.33;312.93;;;;;;;;;;4995885;28;20278;-51
2023/10/02 10:03:22;;;;;;;539.40;334.07;;;;;;;;;;4995137;28;20355;-50
2023/10/02 10:06:06;;;;;;;516.83;314.83;;;;;;;;;;4993850;28;20330;-51
2023/10/02 10:09:18;;;;;;;561.90;343.83;;;;;;;;;;4985894;28;20226;-51
2023/10/02 10:11:37;;;;;;;596.83;372.47;;;;;;;;;;4961965;28;20946;-50
2023/10/02 10:14:35;;;;;;;524.07;305.93;;;;;;;;;;5002636;23;20232;-59
2023/10/02 10:17:02;;;;;;;508.10;292.10;;;;;;;;;;4978485;28;20537;-58
2023/10/02 10:19:30;;;;;;;560.30;329.43;;;;;;;;;;4964818;28;20221;-58
2023/10/02 10:21:57;;;;;;;538.50;319.07;;;;;;;;;;4969563;28;20197;-58
2023/10/02 10:24:35;;;;;;;540.97;316.57;;;;;;;;;;4971280;28;20221;-58
2023/10/02 10:27:02;;;;;;;470.43;272.80;;;;;;;;;;4972109;28;20586;-58
2023/10/02 10:29:37;;;;;;;550.83;322.47;;;;;;;;;;4973563;28;20216;-58
2023/10/02 10:32:23;;;;;;;518.87;309.00;;;;;;;;;;4964692;28;20723;-56
2023/10/02 10:35:17;;;;;;;538.60;314.50;;;;;;;;;;4974956;28;20243;-56
2023/10/02 10:37:46;;;;;;;667.83;404.50;;;;;;;;;;4966581;28;20217;-56
2023/10/02 10:40:50;;;;;;;450.50;269.83;;;;;;;;;;4971046;28;20224;-56
2023/10/02 10:43:16;;;;;;;481.10;287.97;;;;;;;;;;4976655;28;20223;-56
2023/10/02 10:45:44;;;;;;;648.27;400.90;;;;;;;;;;4975070;28;20193;-56
2023/10/02 10:48:23;;;;;;;481.87;287.60;;;;;;;;;;4983513;28;20224;-55
2023/10/02 10:50:59;;;;;;;487.53;288.07;;;;;;;;;;4979811;28;20988;-54
2023/10/02 10:53:28;;;;;;;578.00;357.87;;;;;;;;;;4978758;28;20255;-55
2023/10/02 10:56:05;;;;;;;491.40;297.47;;;;;;;;;;4983920;28;20213;-55
2023/10/02 10:58:35;;;;;;;476.70;289.03;;;;;;;;;;4980916;28;20212;-54
2023/10/02 11:01:05;;;;;;;494.33;299.17;;;;;;;;;;4974074;28;20845;-54
2023/10/02 11:03:31;;;;;;;494.17;304.43;;;;;;;;;;4992303;28;20239;-55
2023/10/02 11:06:02;;;;;;;473.30;296.17;;;;;;;;;;4994888;28;20327;-55
2023/10/02 11:08:30;;;;;;;566.67;349.23;;;;;;;;;;4987060;28;20368;-56
2023/10/02 11:11:11;;;;;;;487.70;301.90;;;;;;;;;;4972261;28;20220;-55
2023/10/02 11:13:50;;;;;;;598.50;374.53;;;;;;;;;;4964061;28;20244;-55
2023/10/02 11:16:22;;;;;;;557.30;342.73;;;;;;;;;;4982875;28;20228;-55
2023/10/02 11:22:14;;;;;;;554.70;346.93;;;;;;;;;;4970921;28;20692;-55
2023/10/02 11:24:40;;;;;;;519.07;328.73;;;;;;;;;;4969276;28;20645;-55
2023/10/02 11:27:07;;;;;;;488.73;310.63;;;;;;;;;;4971604;28;20213;-55
2023/10/02 11:29:43;;;;;;;488.20;305.63;;;;;;;;;;4981749;28;20923;-55
2023/10/02 11:32:19;;;;;;;553.57;352.80;;;;;;;;;;4975790;28;20694;-55
2023/10/02 11:34:58;;;;;;;523.20;336.43;;;;;;;;;;4973540;28;20231;-54
2023/10/02 11:37:25;;;;;;;538.43;348.17;;;;;;;;;;4986195;28;20212;-57
2023/10/02 11:39:51;;;;;;;495.60;315.77;;;;;;;;;;4972342;28;20232;-55
2023/10/02 11:42:18;;;;;;;566.27;363.73;;;;;;;;;;4973225;28;20597;-55
2023/10/02 11:44:44;;;;;;;483.20;316.43;;;;;;;;;;4972144;28;21713;-56
2023/10/02 11:47:10;;;;;;;581.83;368.03;;;;;;;;;;4973343;28;20230;-57
2023/10/02 11:49:40;;;;;;;526.27;338.17;;;;;;;;;;4966746;28;20337;-57
2023/10/02 11:52:06;;;;;;;553.90;356.47;;;;;;;;;;4968478;28;20193;-57
2023/10/02 11:54:41;;;;;;;510.77;340.47;;;;;;;;;;4970935;28;20355;-57
2023/10/02 11:57:08;;;;;;;498.93;321.20;;;;;;;;;;4972632;28;20212;-56
2023/10/02 11:59:38;;;;;;;530.87;340.80;;;;;;;;;;4975464;28;20243;-57
2023/10/02 12:02:05;;;;;;;537.77;354.30;;;;;;;;;;4973598;28;20244;-56
2023/10/02 12:04:33;;;;;;;572.67;365.87;;;;;;;;;;4988391;28;20603;-56
2023/10/02 12:07:00;;;;;;;625.50;416.63;;;;;;;;;;4968220;28;20640;-57
2023/10/02 12:09:27;;;;;;;565.03;383.67;;;;;;;;;;4969449;28;20200;-57
2023/10/02 12:11:53;;;;;;;550.67;359.00;;;;;;;;;;4973026;28;20263;-57
2023/10/02 12:14:20;;;;;;;563.47;371.67;;;;;;;;;;4971905;28;20723;-57
2023/10/02 12:16:47;;;;;;;556.80;367.83;;;;;;;;;;4971183;28;20683;-56
2023/10/02 12:19:15;;;;;;;590.37;390.63;;;;;;;;;;4973665;28;20718;-57
2023/10/02 12:21:41;;;;;;;596.33;399.43;;;;;;;;;;4966524;28;20199;-57
2023/10/02 12:24:08;;;;;;;515.27;347.23;;;;;;;;;;4964239;28;20680;-57
2023/10/02 12:26:34;;;;;;;483.30;331.67;;;;;;;;;;4976785;28;20509;-57
2023/10/02 12:29:00;;;;;;;487.20;340.00;;;;;;;;;;4991252;28;20550;-57
2023/10/02 12:31:27;;;;;;;476.60;331.70;;;;;;;;;;4994702;28;20216;-57
2023/10/02 12:33:53;;;;;;;470.63;329.23;;;;;;;;;;4997223;28;20219;-57
2023/10/02 12:36:22;;;;;;;477.20;328.37;;;;;;;;;;5014994;28;20705;-57
2023/10/02 12:38:49;;;;;;;493.50;336.90;;;;;;;;;;4989234;28;20302;-56
2023/10/02 12:41:20;;;;;;;556.27;382.27;;;;;;;;;;4976883;28;20247;-57
2023/10/02 12:43:47;;;;;;;543.30;380.80;;;;;;;;;;4982658;28;20740;-57
2023/10/02 12:46:14;;;;;;;516.83;361.07;;;;;;;;;;4994969;28;20821;-56
2023/10/02 12:48:46;;;;;;;530.97;362.90;;;;;;;;;;4986402;28;20201;-56
2023/10/02 12:51:13;;;;;;;548.13;377.00;;;;;;;;;;4976016;28;20304;-56
2023/10/02 12:53:39;;;;;;;558.37;393.97;;;;;;;;;;4965689;28;20792;-57
2023/10/02 12:56:05;;;;;;;576.53;400.77;;;;;;;;;;4959623;28;20232;-57
2023/10/02 12:58:36;;;;;;;617.10;428.60;;;;;;;;;;4964104;28;20217;-57
2023/10/02 13:01:03;;;;;;;550.27;391.57;;;;;;;;;;4983433;28;20187;-57
2023/10/02 13:03:30;;;;;;;499.07;356.77;;;;;;;;;;4973920;28;20227;-56
2023/10/02 13:06:01;;;;;;;522.83;372.53;;;;;;;;;;4976434;28;20236;-57
2023/10/02 13:08:28;;;;;;;572.90;408.20;;;;;;;;;;4961504;28;20897;-57
2023/10/02 13:10:54;;;;;;;596.10;427.27;;;;;;;;;;4962377;28;20383;-57
2023/10/02 13:13:20;;;;;;;546.07;390.47;;;;;;;;;;4975829;28;20741;-57
2023/10/02 13:15:51;;;;;;;505.90;379.27;;;;;;;;;;4976249;28;20185;-57
2023/10/02 13:18:17;;;;;;;574.03;426.47;;;;;;;;;;4967986;28;20239;-57
2023/10/02 13:20:43;;;;;;;566.87;425.13;;;;;;;;;;4975811;28;20220;-57
2023/10/02 13:23:10;;;;;;;522.67;397.40;;;;;;;;;;4976349;28;20257;-57
2023/10/02 13:25:36;;;;;;;558.73;422.30;;;;;;;;;;4973922;28;20295;-56
2023/10/02 13:28:02;;;;;;;569.50;442.03;;;;;;;;;;4967776;28;20189;-57
2023/10/02 13:30:30;;;;;;;575.03;448.17;;;;;;;;;;4969095;28;20193;-57
2023/10/02 13:32:56;;;;;;;557.22;454.52;;;;;;;;;;4977237;28;20251;-57
2023/10/02 13:35:23;;;;;;;511.60;430.90;;;;;;;;;;4973510;28;20281;-58
2023/10/02 13:37:52;;;;;;;594.13;502.52;;;;;;;;;;4959974;28;20277;-58
2023/10/02 13:40:18;;;;;;;587.25;497.80;;;;;;;;;;4964097;28;20964;-57
2023/10/02 13:42:45;;;;;;;553.15;473.05;;;;;;;;;;4961516;28;20192;-57
2023/10/02 13:45:11;;;;;;;589.53;499.58;;;;;;;;;;4967380;28;20228;-57
2023/10/02 13:47:37;;;;;;;559.63;476.40;;;;;;;;;;4967190;28;20224;-57
2023/10/02 13:50:03;;;;;;;554.42;474.48;;;;;;;;;;4965391;28;20230;-58
2023/10/02 13:52:29;;;;;;;632.37;520.27;;;;;;;;;;4954205;28;20726;-57
2023/10/02 13:54:55;;;;;;;574.10;488.98;;;;;;;;;;4975926;28;20936;-58
2023/10/02 13:57:22;;;;;;;610.65;528.92;;;;;;;;;;4965561;28;20178;-58
2023/10/02 13:59:49;;;;;;;561.42;494.75;;;;;;;;;;4971326;28;20217;-58
2023/10/02 14:02:16;;;;;;;594.47;516.80;;;;;;;;;;4952103;28;20248;-58
2023/10/02 14:04:42;;;;;;;636.63;537.85;;;;;;;;;;4958545;28;20282;-57
2023/10/02 14:07:09;;;;;;;597.42;527.95;;;;;;;;;;4951105;28;20686;-57
2023/10/02 14:09:35;;;;;;;547.03;479.83;;;;;;;;;;4981004;28;20209;-57
2023/10/02 14:12:01;;;;;;;625.30;536.15;;;;;;;;;;4968113;28;20216;-57
2023/10/02 14:14:30;;;;;;;625.08;515.63;;;;;;;;;;4960449;28;20224;-57
2023/10/02 14:16:58;;;;;;;629.70;518.00;;;;;;;;;;4953115;28;20234;-57
2023/10/02 14:19:24;;;;;;;526.53;467.25;;;;;;;;;;4966702;28;20749;-57
2023/10/02 14:21:51;;;;;;;585.22;513.53;;;;;;;;;;4974657;28;20204;-57
2023/10/02 14:27:22;;;;;;;528.45;471.90;;;;;;;;;;4991058;28;20220;-57
2023/10/02 14:29:48;;;;;;;518.30;461.58;;;;;;;;;;4988034;28;20618;-57
2023/10/02 14:32:14;;;;;;;541.95;481.67;;;;;;;;;;4991007;28;20223;-57
2023/10/02 14:34:40;;;;;;;516.13;455.17;;;;;;;;;;4984845;28;20590;-57
2023/10/02 14:37:06;;;;;;;556.92;473.80;;;;;;;;;;4983068;28;20181;-57
2023/10/02 14:39:33;;;;;;;502.45;438.60;;;;;;;;;;4986394;28;20216;-57